Time;durP1;ratioP1;P1;durP2;ratioP2;P2;SDS_P1;SDS_P2;PMS_P1;PMS_P2;Temp;Humidity;BMP_temperature;BMP_pressure;BME280_temperature;BME280_humidity;BME280_pressure;Samples;Min_cycle;Max_cycle;Signal;HPM_P1;HPM_P2
2021/09/07 00:00:36;;;;;;;12.90;11.80;;;22.30;99.90;;;;;;5031431;28;20211;-78
2021/09/07 00:03:03;;;;;;;13.68;12.35;;;22.30;99.90;;;;;;5032234;28;20207;-77
2021/09/07 00:05:30;;;;;;;12.85;11.63;;;22.30;99.90;;;;;;5031825;28;20204;-80
2021/09/07 00:07:57;;;;;;;13.00;11.70;;;22.30;99.90;;;;;;5031838;28;20262;-75
2021/09/07 00:10:24;;;;;;;13.18;11.80;;;22.30;99.90;;;;;;5030580;28;20219;-74
2021/09/07 00:12:51;;;;;;;12.65;11.35;;;22.30;99.90;;;;;;5031806;28;20203;-76
2021/09/07 00:15:19;;;;;;;13.32;11.57;;;22.20;99.90;;;;;;5031586;28;20322;-77
2021/09/07 00:17:48;;;;;;;14.75;12.93;;;22.20;99.90;;;;;;5031867;28;20257;-80
2021/09/07 00:20:16;;;;;;;12.63;11.48;;;22.30;99.90;;;;;;5031664;28;20285;-74
2021/09/07 00:22:43;;;;;;;14.20;12.60;;;22.30;99.90;;;;;;5030192;28;20215;-73
2021/09/07 00:25:11;;;;;;;15.35;13.75;;;22.30;99.90;;;;;;5031749;28;20208;-82
2021/09/07 00:27:39;;;;;;;11.88;10.77;;;22.40;99.90;;;;;;5031354;28;20262;-78
2021/09/07 00:30:07;;;;;;;17.33;12.82;;;22.40;99.90;;;;;;5031373;28;20211;-75
2021/09/07 00:32:34;;;;;;;12.98;11.77;;;22.30;99.90;;;;;;5031339;28;20211;-78
2021/09/07 00:35:03;;;;;;;12.15;11.05;;;22.40;99.90;;;;;;5031470;28;20211;-78
2021/09/07 00:37:30;;;;;;;14.05;11.90;;;22.50;99.90;;;;;;5030918;28;20215;-75
2021/09/07 00:39:57;;;;;;;13.75;12.35;;;22.40;99.90;;;;;;5031067;28;20231;-76
2021/09/07 00:42:24;;;;;;;12.63;11.32;;;22.40;99.90;;;;;;5031081;28;20211;-77
2021/09/07 00:44:51;;;;;;;12.63;11.40;;;22.40;99.90;;;;;;5031232;28;20261;-77
2021/09/07 00:47:18;;;;;;;13.55;12.02;;;22.40;99.90;;;;;;5030782;28;20753;-77
2021/09/07 00:49:45;;;;;;;13.65;12.30;;;22.40;99.90;;;;;;5030970;28;20211;-74
2021/09/07 00:52:14;;;;;;;12.20;11.05;;;22.50;99.90;;;;;;5031646;28;20274;-74
2021/09/07 00:54:44;;;;;;;11.95;10.82;;;22.40;99.90;;;;;;5030848;28;20204;-75
2021/09/07 00:57:11;;;;;;;13.57;12.20;;;22.40;99.90;;;;;;5031434;28;20257;-78
2021/09/07 00:59:39;;;;;;;14.07;11.30;;;22.40;99.90;;;;;;5031328;28;20289;-75
2021/09/07 01:02:07;;;;;;;11.88;10.77;;;22.40;99.90;;;;;;5031354;28;20200;-80
2021/09/07 01:04:35;;;;;;;11.80;10.55;;;22.30;99.90;;;;;;5030959;28;20212;-80
2021/09/07 01:07:03;;;;;;;11.63;10.43;;;22.30;99.90;;;;;;5031171;28;20269;-78
2021/09/07 01:09:31;;;;;;;13.70;10.68;;;22.40;99.90;;;;;;5031261;28;20249;-76
2021/09/07 01:11:58;;;;;;;12.90;10.63;;;22.40;99.90;;;;;;5030808;28;20215;-75
2021/09/07 01:14:30;;;;;;;15.20;11.20;;;22.40;99.90;;;;;;5030507;28;20258;-77
2021/09/07 01:16:57;;;;;;;12.00;10.60;;;22.40;99.90;;;;;;5030512;28;20265;-81
2021/09/07 01:19:24;;;;;;;12.23;10.38;;;22.40;99.90;;;;;;5030092;28;20281;-73
2021/09/07 01:21:51;;;;;;;11.43;10.35;;;22.40;99.90;;;;;;5030257;28;20625;-79
2021/09/07 01:24:22;;;;;;;11.68;10.45;;;22.40;99.90;;;;;;5030176;28;20208;-78
2021/09/07 01:26:50;;;;;;;14.38;11.30;;;22.40;99.90;;;;;;5030869;28;20306;-77
2021/09/07 01:29:17;;;;;;;11.75;10.55;;;22.50;99.90;;;;;;5029810;28;20203;-73
2021/09/07 01:31:44;;;;;;;11.18;10.18;;;22.40;99.90;;;;;;5030839;28;20211;-81
2021/09/07 01:34:20;;;;;;;10.48;9.45;;;22.40;99.90;;;;;;5030369;28;20210;-81
2021/09/07 01:36:47;;;;;;;11.55;10.43;;;22.40;99.90;;;;;;5030474;28;20325;-79
2021/09/07 01:39:14;;;;;;;11.02;9.90;;;22.40;99.90;;;;;;5030444;28;20692;-78
2021/09/07 01:41:43;;;;;;;14.00;10.27;;;22.40;99.90;;;;;;5030361;28;20667;-80
2021/09/07 01:44:10;;;;;;;14.52;10.45;;;22.40;99.90;;;;;;5030982;28;20208;-78
2021/09/07 01:46:37;;;;;;;11.57;10.27;;;22.40;99.90;;;;;;5016306;28;20213;-77
2021/09/07 01:49:05;;;;;;;10.85;9.43;;;22.30;99.90;;;;;;5030109;28;20215;-79
2021/09/07 01:51:32;;;;;;;11.20;10.05;;;22.40;99.90;;;;;;5029987;28;20212;-77
2021/09/07 01:53:59;;;;;;;13.93;10.80;;;22.40;99.90;;;;;;5030636;28;20211;-80
2021/09/07 01:56:26;;;;;;;9.95;9.13;;;22.30;99.90;;;;;;5029904;28;20215;-80
2021/09/07 01:58:55;;;;;;;15.10;9.77;;;22.40;99.90;;;;;;5030136;28;20258;-77
2021/09/07 02:01:22;;;;;;;9.57;8.75;;;22.50;99.90;;;;;;5029500;28;20630;-79
2021/09/07 02:03:49;;;;;;;9.38;8.40;;;22.50;99.90;;;;;;5030330;28;20207;-81
2021/09/07 02:06:16;;;;;;;9.90;8.32;;;22.50;99.90;;;;;;5030420;28;20211;-77
2021/09/07 02:08:43;;;;;;;10.45;9.40;;;22.50;99.90;;;;;;5016361;28;20254;-77
2021/09/07 02:11:11;;;;;;;10.15;8.88;;;22.60;99.90;;;;;;5030740;28;20265;-77
2021/09/07 02:13:38;;;;;;;9.45;8.55;;;22.50;99.90;;;;;;5029894;28;20291;-79
2021/09/07 02:16:06;;;;;;;9.88;8.65;;;22.60;99.90;;;;;;5030245;28;20426;-78
2021/09/07 02:18:33;;;;;;;8.80;7.90;;;22.60;99.90;;;;;;5029585;28;20211;-77
2021/09/07 02:21:00;;;;;;;9.80;8.77;;;22.60;99.90;;;;;;5030226;28;20296;-81
2021/09/07 02:23:27;;;;;;;9.32;8.45;;;22.60;99.90;;;;;;5029668;28;20207;-79
2021/09/07 02:25:55;;;;;;;8.98;8.18;;;22.60;99.90;;;;;;5030149;28;20211;-79
2021/09/07 02:28:22;;;;;;;8.45;7.63;;;22.60;99.90;;;;;;5029695;28;20253;-77
2021/09/07 02:30:49;;;;;;;8.63;7.82;;;22.60;99.90;;;;;;5029644;28;20212;-77
2021/09/07 02:33:17;;;;;;;9.63;8.63;;;22.60;99.90;;;;;;5030125;28;20204;-78
2021/09/07 02:35:44;;;;;;;8.40;7.60;;;22.60;99.90;;;;;;5033734;28;20208;-78
2021/09/07 02:38:11;;;;;;;9.18;7.38;;;22.70;99.90;;;;;;5034003;28;20215;-78
2021/09/07 02:40:38;;;;;;;8.20;7.40;;;22.80;99.90;;;;;;5033544;28;20326;-79
2021/09/07 02:43:05;;;;;;;8.85;7.25;;;22.70;99.90;;;;;;5033538;28;20203;-78
2021/09/07 02:45:32;;;;;;;8.50;7.78;;;22.70;99.90;;;;;;5033382;28;20203;-77
2021/09/07 02:47:59;;;;;;;8.30;7.50;;;22.80;99.90;;;;;;5033293;28;20266;-80
2021/09/07 02:50:27;;;;;;;11.80;8.63;;;22.70;99.90;;;;;;5042510;28;20215;-78
2021/09/07 02:52:54;;;;;;;9.32;8.38;;;22.70;99.90;;;;;;5037574;28;20265;-80
2021/09/07 02:55:21;;;;;;;9.23;8.00;;;22.70;99.90;;;;;;5033137;28;20208;-76
2021/09/07 02:57:48;;;;;;;8.80;7.70;;;22.70;99.90;;;;;;5033002;28;20679;-77
2021/09/07 03:00:16;;;;;;;9.57;7.82;;;22.60;99.90;;;;;;5032946;28;20713;-78
2021/09/07 03:02:43;;;;;;;9.63;8.27;;;22.60;99.90;;;;;;5033635;28;20207;-76
2021/09/07 03:05:10;;;;;;;8.52;7.72;;;22.70;99.90;;;;;;5033163;28;20618;-79
2021/09/07 03:07:39;;;;;;;10.02;8.93;;;22.70;99.90;;;;;;5032798;28;20262;-78
2021/09/07 03:10:06;;;;;;;9.88;8.07;;;22.60;99.90;;;;;;5032677;28;20729;-79
2021/09/07 03:12:34;;;;;;;8.57;7.80;;;22.60;99.90;;;;;;5032857;28;20671;-77
2021/09/07 03:15:01;;;;;;;9.27;8.13;;;22.60;99.90;;;;;;5032754;28;20294;-77
2021/09/07 03:17:28;;;;;;;8.27;7.43;;;22.70;99.90;;;;;;5032742;28;20257;-80
2021/09/07 03:19:55;;;;;;;9.38;8.55;;;22.70;99.90;;;;;;5032970;28;20235;-80
2021/09/07 03:22:22;;;;;;;8.02;7.15;;;22.70;99.90;;;;;;5018745;28;20203;-80
2021/09/07 03:24:50;;;;;;;12.18;7.95;;;22.60;99.90;;;;;;5032609;28;20208;-76
2021/09/07 03:27:17;;;;;;;8.75;7.85;;;22.70;99.90;;;;;;5032100;28;20261;-75
2021/09/07 03:29:44;;;;;;;11.98;8.50;;;22.70;99.90;;;;;;5032364;28;20211;-75
2021/09/07 03:32:11;;;;;;;10.23;8.52;;;22.80;99.90;;;;;;5033017;28;20269;-79
2021/09/07 03:34:38;;;;;;;10.00;8.98;;;22.80;99.90;;;;;;5032374;28;20211;-76
2021/09/07 03:37:05;;;;;;;11.00;8.35;;;22.80;99.90;;;;;;5032577;28;20629;-80
2021/09/07 03:39:32;;;;;;;9.98;9.00;;;22.80;99.90;;;;;;5031997;28;20652;-78
2021/09/07 03:42:00;;;;;;;10.18;9.07;;;22.80;99.90;;;;;;5032790;28;20211;-75
2021/09/07 03:44:27;;;;;;;8.88;8.10;;;22.80;99.90;;;;;;5031499;28;20690;-79
2021/09/07 03:46:54;;;;;;;13.18;8.95;;;22.80;99.90;;;;;;5032454;28;20632;-79
2021/09/07 03:49:21;;;;;;;11.48;9.30;;;22.80;99.90;;;;;;5031714;28;20207;-76
2021/09/07 03:51:48;;;;;;;10.75;8.32;;;22.80;99.90;;;;;;5032285;28;20293;-77
2021/09/07 03:54:15;;;;;;;9.23;8.32;;;22.90;99.90;;;;;;5032520;28;20273;-78
2021/09/07 03:56:42;;;;;;;9.75;8.80;;;22.90;99.90;;;;;;5032372;28;20212;-76
2021/09/07 03:59:11;;;;;;;10.32;9.40;;;22.90;99.90;;;;;;5032364;28;20287;-76
2021/09/07 04:01:37;;;;;;;9.82;8.10;;;23.00;99.90;;;;;;5031607;28;20317;-77
2021/09/07 04:04:05;;;;;;;11.00;9.90;;;22.90;99.90;;;;;;5032272;28;20215;-76
2021/09/07 04:06:32;;;;;;;9.48;8.40;;;23.00;99.90;;;;;;5031292;28;20731;-77
2021/09/07 04:08:59;;;;;;;9.85;8.93;;;23.00;99.90;;;;;;5032096;28;20679;-77
2021/09/07 04:11:26;;;;;;;10.85;8.75;;;23.00;99.90;;;;;;5031340;28;20679;-78
2021/09/07 04:13:53;;;;;;;11.93;8.48;;;23.00;99.90;;;;;;5031680;28;20659;-78
2021/09/07 04:16:22;;;;;;;9.95;8.95;;;23.00;99.90;;;;;;5031451;28;20208;-77
2021/09/07 04:18:48;;;;;;;10.82;9.05;;;23.00;99.90;;;;;;5031627;28;20203;-78
2021/09/07 04:21:16;;;;;;;9.57;8.75;;;23.00;99.90;;;;;;5031959;28;20289;-80
2021/09/07 04:23:43;;;;;;;10.05;8.15;;;22.90;99.90;;;;;;5031411;28;20679;-76
2021/09/07 04:26:10;;;;;;;9.48;8.48;;;22.90;99.90;;;;;;5032223;28;20249;-75
2021/09/07 04:28:37;;;;;;;10.18;9.18;;;22.90;99.90;;;;;;5030866;28;20215;-75
2021/09/07 04:31:04;;;;;;;9.30;8.40;;;23.00;99.90;;;;;;5031710;28;20242;-75
2021/09/07 04:33:33;;;;;;;10.23;9.13;;;23.00;99.90;;;;;;5030801;28;20208;-76
2021/09/07 04:36:00;;;;;;;9.90;8.85;;;22.90;99.90;;;;;;5030866;28;20630;-77
2021/09/07 04:38:27;;;;;;;8.73;8.02;;;23.00;99.90;;;;;;5030705;28;20623;-75
2021/09/07 04:40:54;;;;;;;8.77;8.05;;;22.90;99.90;;;;;;5030920;28;20602;-75
2021/09/07 04:43:21;;;;;;;8.48;7.68;;;22.90;99.90;;;;;;5030597;28;20628;-76
2021/09/07 04:45:47;;;;;;;9.95;8.95;;;22.80;99.90;;;;;;5030998;28;20290;-78
2021/09/07 04:48:14;;;;;;;8.68;7.97;;;22.80;99.90;;;;;;5030798;28;20285;-77
2021/09/07 04:50:43;;;;;;;10.63;8.10;;;22.90;99.90;;;;;;5031293;28;20278;-81
2021/09/07 04:53:10;;;;;;;7.90;7.18;;;22.90;99.90;;;;;;5031297;28;20257;-79
2021/09/07 04:55:37;;;;;;;10.48;8.07;;;22.90;99.90;;;;;;5030357;28;20285;-79
2021/09/07 04:58:04;;;;;;;9.48;8.57;;;22.90;99.90;;;;;;5030353;28;20265;-77
2021/09/07 05:00:31;;;;;;;9.30;8.18;;;22.90;99.90;;;;;;5030058;28;20580;-76
2021/09/07 05:02:58;;;;;;;10.05;8.23;;;22.90;99.90;;;;;;5031196;28;20207;-76
2021/09/07 05:05:25;;;;;;;8.07;7.45;;;22.90;99.90;;;;;;5030701;28;20211;-81
2021/09/07 05:07:54;;;;;;;9.13;8.27;;;22.80;99.90;;;;;;5031184;28;20242;-81
2021/09/07 05:10:21;;;;;;;7.78;7.03;;;22.80;99.90;;;;;;5030144;28;20720;-81
2021/09/07 05:12:48;;;;;;;9.25;8.25;;;22.90;99.90;;;;;;5030502;28;20625;-80
2021/09/07 05:15:15;;;;;;;9.27;8.02;;;22.80;99.90;;;;;;5030371;28;20204;-75
2021/09/07 05:17:42;;;;;;;8.77;8.02;;;22.80;99.90;;;;;;5031454;28;20588;-77
2021/09/07 05:20:09;;;;;;;9.13;8.23;;;22.80;99.90;;;;;;5030761;28;20578;-76
2021/09/07 05:22:36;;;;;;;12.73;8.60;;;22.80;99.90;;;;;;5030459;28;20281;-76
2021/09/07 05:25:06;;;;;;;11.15;8.25;;;22.80;99.90;;;;;;5030557;28;20301;-73
2021/09/07 05:27:33;;;;;;;8.98;8.00;;;22.80;99.90;;;;;;5030101;28;20215;-78
2021/09/07 05:30:00;;;;;;;9.88;8.65;;;22.90;99.90;;;;;;5030604;28;20207;-82
2021/09/07 05:32:27;;;;;;;11.82;9.73;;;22.90;99.90;;;;;;5030268;28;20261;-75
2021/09/07 05:34:54;;;;;;;8.65;7.80;;;22.80;99.90;;;;;;5030757;28;20273;-77
2021/09/07 05:37:21;;;;;;;7.95;7.15;;;22.90;99.90;;;;;;5030189;28;20215;-76
2021/09/07 05:39:48;;;;;;;9.10;8.30;;;22.80;99.90;;;;;;5030057;28;20304;-76
2021/09/07 05:42:16;;;;;;;8.55;7.53;;;22.90;99.90;;;;;;5030537;28;20273;-75
2021/09/07 05:44:43;;;;;;;10.73;8.43;;;22.90;99.90;;;;;;5030084;28;20207;-74
2021/09/07 05:47:10;;;;;;;7.75;7.05;;;22.90;99.90;;;;;;5030854;28;20615;-83
2021/09/07 05:49:37;;;;;;;9.10;8.20;;;23.00;99.90;;;;;;5029758;28;20216;-78
2021/09/07 05:52:05;;;;;;;8.30;7.45;;;23.00;99.90;;;;;;5030309;28;20628;-76
2021/09/07 05:54:32;;;;;;;9.75;8.75;;;23.00;99.90;;;;;;5029482;28;20208;-75
2021/09/07 05:56:59;;;;;;;11.02;8.63;;;23.10;99.90;;;;;;5030552;28;20216;-83
2021/09/07 05:59:27;;;;;;;9.90;8.23;;;23.10;99.90;;;;;;5029950;28;20621;-80
2021/09/07 06:01:54;;;;;;;10.52;8.80;;;23.00;99.90;;;;;;5029951;28;20239;-83
2021/09/07 06:04:21;;;;;;;7.45;6.85;;;23.10;99.90;;;;;;5029806;28;20258;-77
2021/09/07 06:06:48;;;;;;;13.27;9.20;;;23.20;99.90;;;;;;5030154;28;20265;-75
2021/09/07 06:09:15;;;;;;;7.80;7.13;;;23.20;99.90;;;;;;5031810;28;20261;-83
2021/09/07 06:11:43;;;;;;;8.27;7.47;;;23.20;99.90;;;;;;5034645;28;20210;-84
2021/09/07 06:14:10;;;;;;;18.45;9.18;;;23.20;99.90;;;;;;5034723;28;20211;-84
2021/09/07 06:16:38;;;;;;;7.32;6.25;;;23.30;99.90;;;;;;5033629;28;20209;-85
2021/09/07 06:19:05;;;;;;;9.20;7.15;;;23.30;99.90;;;;;;5034330;28;20207;-78
2021/09/07 06:21:32;;;;;;;7.72;7.03;;;23.40;99.90;;;;;;5033746;28;20235;-80
2021/09/07 06:23:59;;;;;;;11.45;7.43;;;23.50;99.90;;;;;;5033610;28;20204;-76
2021/09/07 06:26:26;;;;;;;8.45;6.47;;;23.50;99.90;;;;;;5033890;28;20285;-81
2021/09/07 06:28:53;;;;;;;7.90;6.50;;;23.60;99.90;;;;;;5033934;28;20199;-74
2021/09/07 06:31:20;;;;;;;11.05;6.90;;;23.70;99.90;;;;;;5019819;28;20204;-82
2021/09/07 06:33:49;;;;;;;7.60;6.60;;;23.70;99.90;;;;;;5034070;28;20215;-73
2021/09/07 06:36:16;;;;;;;9.20;5.97;;;23.80;99.90;;;;;;5033407;28;20257;-80
2021/09/07 06:38:43;;;;;;;7.05;6.35;;;23.90;99.90;;;;;;5033472;28;20758;-74
2021/09/07 06:41:10;;;;;;;7.10;5.75;;;23.90;99.90;;;;;;5033522;28;20231;-80
2021/09/07 06:43:37;;;;;;;6.93;6.32;;;24.00;99.90;;;;;;5033183;28;20658;-83
2021/09/07 06:46:04;;;;;;;8.15;5.80;;;24.00;99.90;;;;;;5033674;28;20265;-79
2021/09/07 06:48:32;;;;;;;5.82;5.22;;;24.10;99.90;;;;;;5033308;28;20370;-82
2021/09/07 06:51:00;;;;;;;6.70;6.00;;;24.10;99.90;;;;;;5033373;28;20211;-84
2021/09/07 06:53:27;;;;;;;6.35;5.80;;;24.10;99.90;;;;;;5019510;28;20203;-74
2021/09/07 06:55:54;;;;;;;7.03;5.55;;;24.20;99.90;;;;;;5033753;28;20207;-82
2021/09/07 06:58:21;;;;;;;5.93;5.40;;;24.30;99.90;;;;;;5032990;28;20199;-84
2021/09/07 07:00:48;;;;;;;6.10;5.18;;;24.30;99.90;;;;;;5033506;28;20293;-78
2021/09/07 07:03:15;;;;;;;7.93;5.72;;;24.40;99.90;;;;;;5029094;28;20266;-75
2021/09/07 07:05:42;;;;;;;6.15;5.65;;;24.40;99.90;;;;;;5031528;28;20208;-75
2021/09/07 07:08:11;;;;;;;6.65;5.63;;;24.50;99.90;;;;;;5033242;28;20253;-78
2021/09/07 07:10:38;;;;;;;6.30;5.70;;;24.60;99.90;;;;;;5025087;28;20594;-76
2021/09/07 07:13:05;;;;;;;8.40;5.63;;;24.50;99.90;;;;;;5032908;28;20668;-79
2021/09/07 07:15:32;;;;;;;6.20;5.47;;;24.50;99.90;;;;;;5018992;28;20203;-76
2021/09/07 07:17:59;;;;;;;7.40;6.35;;;24.60;99.90;;;;;;5032953;28;20207;-79
2021/09/07 07:20:26;;;;;;;9.30;6.95;;;24.70;99.90;;;;;;5025112;28;20261;-72
2021/09/07 07:22:53;;;;;;;6.43;5.43;;;24.80;99.90;;;;;;5019162;28;20204;-76
2021/09/07 07:25:21;;;;;;;6.60;5.80;;;24.90;99.90;;;;;;5016059;28;20250;-75
2021/09/07 07:27:48;;;;;;;7.00;5.68;;;25.00;99.90;;;;;;5021768;28;20212;-72
2021/09/07 07:30:15;;;;;;;6.28;5.18;;;25.10;99.90;;;;;;5032563;28;20208;-74
2021/09/07 07:32:42;;;;;;;8.20;5.32;;;25.20;99.90;;;;;;5032465;28;20671;-76
2021/09/07 07:35:10;;;;;;;8.60;5.72;;;25.30;99.90;;;;;;5032166;28;20692;-75
2021/09/07 07:37:37;;;;;;;5.72;5.22;;;25.20;99.90;;;;;;5030972;28;20924;-76
2021/09/07 07:40:05;;;;;;;10.27;6.95;;;25.30;99.90;;;;;;5032609;28;20290;-73
2021/09/07 07:42:34;;;;;;;6.03;5.50;;;25.40;99.90;;;;;;5031645;28;20235;-78
2021/09/07 07:45:01;;;;;;;7.00;5.25;;;25.50;99.90;;;;;;5032086;28;20254;-75
2021/09/07 07:47:28;;;;;;;9.48;5.47;;;25.60;99.90;;;;;;5018490;28;20679;-77
2021/09/07 07:49:55;;;;;;;7.05;4.95;;;25.50;99.90;;;;;;5030100;28;20215;-77
2021/09/07 07:52:22;;;;;;;10.55;5.57;;;25.60;99.90;;;;;;5024017;28;20254;-78
2021/09/07 07:54:50;;;;;;;6.45;5.35;;;25.70;99.90;;;;;;5031925;28;20199;-75
2021/09/07 07:57:18;;;;;;;7.03;5.07;;;25.70;99.90;;;;;;5031622;28;20204;-73
2021/09/07 07:59:47;;;;;;;6.18;5.57;;;25.80;99.90;;;;;;5029126;28;20203;-79
2021/09/07 08:02:14;;;;;;;5.97;4.65;;;25.80;99.90;;;;;;5031641;28;20231;-76
2021/09/07 08:04:41;;;;;;;6.80;5.32;;;25.90;99.90;;;;;;5031531;28;20732;-75
2021/09/07 08:07:08;;;;;;;7.00;5.00;;;26.10;99.90;;;;;;5015814;28;20209;-74
2021/09/07 08:09:35;;;;;;;8.35;4.95;;;26.30;99.90;;;;;;5017965;28;20281;-75
2021/09/07 08:12:02;;;;;;;7.95;5.00;;;26.30;99.90;;;;;;5020415;28;20273;-74
2021/09/07 08:14:29;;;;;;;6.47;5.32;;;26.30;99.90;;;;;;5026474;28;20204;-76
2021/09/07 08:16:58;;;;;;;7.45;4.72;;;26.50;99.90;;;;;;5018904;28;20204;-76
2021/09/07 08:19:25;;;;;;;12.88;5.75;;;26.70;99.90;;;;;;5021221;28;20254;-77
2021/09/07 08:21:52;;;;;;;5.35;4.28;;;26.90;99.90;;;;;;5020082;28;20223;-80
2021/09/07 08:24:19;;;;;;;10.13;4.38;;;27.10;99.90;;;;;;5017869;28;20214;-79
2021/09/07 08:26:46;;;;;;;6.85;4.63;;;27.40;99.90;;;;;;5025173;28;20249;-80
2021/09/07 08:29:13;;;;;;;5.75;4.03;;;27.10;99.90;;;;;;5015846;28;20671;-79
2021/09/07 08:31:40;;;;;;;7.22;4.72;;;27.40;99.90;;;;;;5025521;28;20207;-75
2021/09/07 08:34:08;;;;;;;7.50;4.30;;;27.30;99.90;;;;;;5012795;28;20250;-74
2021/09/07 08:36:35;;;;;;;7.40;4.28;;;27.70;99.90;;;;;;5010847;28;20223;-77
2021/09/07 08:39:04;;;;;;;9.40;4.22;;;27.30;99.90;;;;;;5024745;28;20211;-75
2021/09/07 08:41:31;;;;;;;4.65;3.95;;;27.50;99.90;;;;;;5028372;28;20243;-77
2021/09/07 08:43:58;;;;;;;8.80;4.60;;;27.40;99.90;;;;;;5029722;28;20212;-75
2021/09/07 08:46:25;;;;;;;8.95;4.15;;;27.20;99.90;;;;;;5030708;28;20261;-75
2021/09/07 08:48:52;;;;;;;4.68;4.20;;;27.20;99.90;;;;;;5030821;28;20208;-75
2021/09/07 08:51:22;;;;;;;4.80;3.85;;;27.10;99.90;;;;;;5030537;28;20678;-75
2021/09/07 08:53:49;;;;;;;9.45;4.28;;;27.10;99.90;;;;;;5031046;28;20211;-76
2021/09/07 08:56:17;;;;;;;6.70;4.60;;;27.20;99.90;;;;;;5030663;28;20697;-75
2021/09/07 08:58:44;;;;;;;5.50;3.80;;;27.50;99.90;;;;;;5031344;28;20270;-75
2021/09/07 09:01:12;;;;;;;5.28;3.88;;;27.90;99.90;;;;;;5031176;28;20211;-78
2021/09/07 09:03:41;;;;;;;6.32;4.65;;;27.50;99.90;;;;;;5018086;28;20261;-75
2021/09/07 09:06:08;;;;;;;7.32;4.10;;;27.40;99.90;;;;;;5030335;28;20207;-73
2021/09/07 09:08:37;;;;;;;4.95;3.75;;;27.60;99.90;;;;;;5023553;28;20211;-76
2021/09/07 09:11:06;;;;;;;5.75;3.83;;;27.90;99.90;;;;;;5030160;28;20207;-72
2021/09/07 09:13:43;;;;;;;6.05;4.38;;;28.20;99.90;;;;;;5029757;28;20299;-77
2021/09/07 09:16:10;;;;;;;4.70;3.63;;;28.30;99.90;;;;;;5032768;28;20203;-74
2021/09/07 09:18:39;;;;;;;4.93;4.10;;;28.10;99.90;;;;;;5030292;28;20285;-76
2021/09/07 09:21:21;;;;;;;6.40;3.88;;;27.60;99.90;;;;;;5030356;28;20257;-76
2021/09/07 09:24:11;;;;;;;9.30;4.07;;;27.70;99.90;;;;;;5021177;28;20199;-78
2021/09/07 09:26:57;;;;;;;5.20;4.15;;;27.40;99.90;;;;;;5021849;28;20203;-77
2021/09/07 09:29:27;;;;;;;8.18;4.20;;;27.60;99.90;;;;;;5023994;28;20261;-76
2021/09/07 09:31:56;;;;;;;4.32;3.80;;;27.90;99.90;;;;;;5020696;28;20254;-72
2021/09/07 09:34:23;;;;;;;5.00;4.55;;;29.10;99.90;;;;;;5028561;28;20208;-74
2021/09/07 09:37:02;;;;;;;5.70;3.35;;;28.90;99.90;;;;;;5018677;28;20216;-76
2021/09/07 09:39:38;;;;;;;5.15;3.58;;;30.40;99.90;;;;;;5015230;28;20211;-74
2021/09/07 09:42:06;;;;;;;5.85;4.28;;;30.70;99.90;;;;;;5026835;28;20575;-77
2021/09/07 09:44:33;;;;;;;4.95;3.65;;;31.20;99.90;;;;;;5022512;28;20999;-73
2021/09/07 09:47:00;;;;;;;4.93;3.53;;;31.30;99.90;;;;;;5023307;28;20562;-73
2021/09/07 09:49:30;;;;;;;4.85;3.63;;;30.20;99.90;;;;;;5023533;28;20208;-77
2021/09/07 09:52:02;;;;;;;5.35;3.80;;;29.80;99.90;;;;;;5027420;28;20290;-74
2021/09/07 09:54:31;;;;;;;5.35;3.83;;;30.20;99.90;;;;;;5016622;28;20212;-77
2021/09/07 09:57:00;;;;;;;5.00;4.35;;;30.20;99.90;;;;;;5013091;28;20212;-73
2021/09/07 09:59:28;;;;;;;4.25;3.88;;;29.40;99.90;;;;;;5010429;28;20262;-74
2021/09/07 10:01:57;;;;;;;4.43;3.67;;;30.10;99.90;;;;;;5015575;28;20322;-73
2021/09/07 10:04:24;;;;;;;4.03;3.60;;;30.70;99.90;;;;;;5009705;28;20356;-76
2021/09/07 10:06:52;;;;;;;5.03;3.90;;;30.60;99.90;;;;;;5012183;28;20199;-73
2021/09/07 10:09:20;;;;;;;6.45;4.10;;;30.40;99.90;;;;;;5020283;28;20212;-73
2021/09/07 10:11:51;;;;;;;5.78;3.50;;;31.20;99.90;;;;;;5026515;28;20210;-74
2021/09/07 10:14:25;;;;;;;4.60;3.85;;;30.70;99.90;;;;;;5018482;28;20675;-73
2021/09/07 10:17:12;;;;;;;3.83;3.38;;;30.30;99.90;;;;;;5019543;28;20237;-72
2021/09/07 10:19:44;;;;;;;3.75;3.47;;;30.10;99.90;;;;;;5020752;28;20687;-74
2021/09/07 10:24:59;;;;;;;6.28;4.55;;;30.60;99.90;;;;;;5020196;28;20322;-73
2021/09/07 10:28:03;;;;;;;4.40;4.03;;;32.50;99.90;;;;;;5016918;28;20309;-76
2021/09/07 10:30:58;;;;;;;8.20;4.22;;;30.40;99.90;;;;;;5023739;28;20628;-73
2021/09/07 10:33:36;;;;;;;6.85;4.18;;;29.30;99.90;;;;;;5020398;28;20210;-74
2021/09/07 10:36:08;;;;;;;5.18;4.60;;;29.30;99.90;;;;;;5029554;28;20667;-74
2021/09/07 10:38:40;;;;;;;4.90;3.67;;;29.40;99.90;;;;;;5029802;28;20262;-73
2021/09/07 10:41:08;;;;;;;5.18;4.22;;;29.30;99.90;;;;;;5029735;28;20630;-73
2021/09/07 10:43:52;;;;;;;4.38;3.95;;;29.20;99.90;;;;;;5029723;28;20242;-73
2021/09/07 10:46:46;;;;;;;5.15;3.55;;;29.30;99.90;;;;;;5029262;28;20288;-75
2021/09/07 10:49:23;;;;;;;5.82;4.07;;;29.10;99.90;;;;;;5030185;28;20265;-75
2021/09/07 10:52:11;;;;;;;4.57;4.15;;;29.40;99.90;;;;;;5017463;28;20674;-75
2021/09/07 10:54:42;;;;;;;4.32;4.03;;;29.30;99.90;;;;;;5029694;28;20265;-75
2021/09/07 10:57:09;;;;;;;7.63;4.57;;;29.20;99.90;;;;;;5033887;28;20290;-75
2021/09/07 10:59:48;;;;;;;5.28;4.05;;;29.50;99.90;;;;;;5032436;28;20946;-73
2021/09/07 11:02:36;;;;;;;5.32;4.00;;;29.70;99.90;;;;;;5031644;28;20227;-74
2021/09/07 11:05:04;;;;;;;6.45;3.53;;;29.60;99.90;;;;;;5027610;28;20211;-72
2021/09/07 11:07:40;;;;;;;6.03;3.90;;;29.60;99.90;;;;;;5032288;28;20285;-75
2021/09/07 11:10:26;;;;;;;5.45;4.00;;;29.70;99.90;;;;;;5032414;28;20265;-78
2021/09/07 11:12:55;;;;;;;3.90;3.53;;;29.30;99.90;;;;;;5025266;28;20207;-76
2021/09/07 11:15:23;;;;;;;5.22;3.97;;;29.50;99.90;;;;;;5032106;28;20667;-76
2021/09/07 11:17:53;;;;;;;4.97;4.20;;;29.90;99.90;;;;;;5032814;28;20233;-76
2021/09/07 11:20:26;;;;;;;7.25;4.70;;;30.20;99.90;;;;;;5032614;28;20620;-74
2021/09/07 11:22:54;;;;;;;6.50;4.57;;;29.90;99.90;;;;;;5032791;28;20680;-73
2021/09/07 11:25:22;;;;;;;9.85;4.28;;;29.80;99.90;;;;;;5032160;28;20717;-75
2021/09/07 11:27:52;;;;;;;8.23;4.35;;;29.80;99.90;;;;;;5032584;28;20262;-76
2021/09/07 11:30:24;;;;;;;9.95;4.03;;;30.20;99.90;;;;;;5032080;28;20215;-74
2021/09/07 11:32:58;;;;;;;4.70;3.67;;;30.00;99.90;;;;;;5032487;28;20203;-75
2021/09/07 11:35:25;;;;;;;6.40;4.00;;;30.00;99.90;;;;;;5032567;28;20258;-74
2021/09/07 11:37:57;;;;;;;4.72;4.13;;;29.80;99.90;;;;;;5032447;28;20219;-74
2021/09/07 11:40:25;;;;;;;9.68;5.50;;;29.70;99.90;;;;;;5032174;28;20562;-75
2021/09/07 11:42:52;;;;;;;12.80;6.13;;;29.90;99.90;;;;;;5032016;28;20235;-75
2021/09/07 11:45:21;;;;;;;7.38;4.78;;;30.00;99.90;;;;;;5032503;28;20207;-75
2021/09/07 11:47:48;;;;;;;8.32;4.55;;;29.90;99.90;;;;;;5031636;28;20627;-81
2021/09/07 11:50:18;;;;;;;5.32;4.10;;;29.90;99.90;;;;;;5032130;28;20211;-78
2021/09/07 11:52:47;;;;;;;7.07;4.47;;;29.90;99.90;;;;;;5020613;28;20258;-78
2021/09/07 11:55:48;;;;;;;4.15;3.33;;;30.00;99.90;;;;;;5013481;28;20203;-81
2021/09/07 11:58:29;;;;;;;4.93;3.40;;;29.80;99.90;;;;;;5015159;28;20287;-78
2021/09/07 12:01:08;;;;;;;4.82;3.78;;;30.00;99.90;;;;;;5024484;28;20204;-84
2021/09/07 12:03:38;;;;;;;6.05;4.15;;;30.00;99.90;;;;;;5028124;28;20239;-75
2021/09/07 12:06:07;;;;;;;11.50;5.03;;;30.20;99.90;;;;;;5021850;28;20204;-73
2021/09/07 12:08:37;;;;;;;5.07;3.85;;;30.40;99.90;;;;;;5022371;28;20208;-76
2021/09/07 12:11:05;;;;;;;11.07;4.22;;;30.40;99.90;;;;;;5025312;28;20629;-77
2021/09/07 12:13:32;;;;;;;8.13;4.78;;;30.70;99.90;;;;;;5024912;28;20208;-76
2021/09/07 12:16:00;;;;;;;6.15;3.70;;;30.80;99.90;;;;;;5020854;28;20679;-74
2021/09/07 12:18:33;;;;;;;4.60;3.65;;;31.00;99.90;;;;;;5016965;28;20203;-75
2021/09/07 12:21:11;;;;;;;3.80;3.50;;;31.00;99.90;;;;;;5027952;28;20203;-77
2021/09/07 12:23:40;;;;;;;4.43;3.83;;;30.90;99.90;;;;;;5024531;28;20285;-71
2021/09/07 12:26:07;;;;;;;5.07;3.70;;;30.80;99.90;;;;;;5019344;28;20245;-77
2021/09/07 12:28:34;;;;;;;4.28;3.88;;;30.60;99.90;;;;;;5017775;28;20649;-78
2021/09/07 12:31:19;;;;;;;6.50;4.30;;;30.70;99.90;;;;;;5027290;28;20261;-77
2021/09/07 12:33:49;;;;;;;6.65;4.55;;;30.70;99.90;;;;;;5019698;28;20211;-80
2021/09/07 12:36:18;;;;;;;5.25;3.67;;;30.60;99.90;;;;;;5015004;28;20259;-76
2021/09/07 12:38:45;;;;;;;8.93;3.83;;;30.50;99.90;;;;;;5012431;28;20204;-79
2021/09/07 12:41:15;;;;;;;6.53;3.92;;;30.80;99.90;;;;;;5012671;28;20222;-76
2021/09/07 12:43:47;;;;;;;3.85;3.05;;;30.60;99.90;;;;;;5021819;28;20288;-74
2021/09/07 12:46:19;;;;;;;4.93;3.83;;;30.30;99.90;;;;;;5018435;28;20618;-73
2021/09/07 12:48:48;;;;;;;5.72;3.38;;;29.90;99.90;;;;;;5028894;28;20203;-78
2021/09/07 12:51:19;;;;;;;5.30;3.53;;;30.10;99.90;;;;;;5028058;28;20204;-75
2021/09/07 12:53:47;;;;;;;7.53;3.55;;;30.00;99.90;;;;;;5021937;28;20216;-78